createdAt,value
2022-12-08T00:01:40.079Z,24.04
2022-12-08T00:04:07.783Z,24.04
2022-12-08T00:06:40.265Z,24.06
2022-12-08T00:09:12.916Z,24.06
2022-12-08T00:11:39.616Z,24.04
2022-12-08T00:14:06.473Z,24.06
2022-12-08T00:16:33.259Z,24.05
2022-12-08T00:18:59.987Z,24.05
2022-12-08T00:21:26.763Z,24.05
2022-12-08T00:23:55.764Z,24.06
2022-12-08T00:26:23.053Z,24.04
2022-12-08T00:28:50.011Z,24.05
2022-12-08T00:31:17.531Z,24.05
2022-12-08T00:33:44.272Z,24.05
2022-12-08T00:36:14.350Z,24.06
2022-12-08T00:38:41.661Z,24.07
2022-12-08T00:41:13.577Z,24.08
2022-12-08T00:43:40.449Z,24.07
2022-12-08T00:46:07.164Z,24.09
2022-12-08T00:48:34.005Z,24.10
2022-12-08T00:51:00.802Z,24.10
2022-12-08T00:53:27.629Z,24.12
2022-12-08T00:55:54.266Z,24.12
2022-12-08T00:58:20.961Z,24.12
2022-12-08T01:00:47.811Z,24.12
2022-12-08T01:03:14.605Z,24.12
2022-12-08T01:05:41.411Z,24.12
2022-12-08T01:08:09.087Z,24.14
2022-12-08T01:10:36.676Z,24.12
2022-12-08T01:13:03.786Z,24.12
2022-12-08T01:15:30.496Z,24.13
2022-12-08T01:17:57.241Z,24.14
2022-12-08T01:20:24.396Z,24.15
2022-12-08T01:22:51.169Z,24.16
2022-12-08T01:25:18.028Z,24.15
2022-12-08T01:27:44.850Z,24.15
2022-12-08T01:30:12.109Z,24.15
2022-12-08T01:32:38.844Z,24.16
2022-12-08T01:35:05.891Z,24.16
2022-12-08T01:37:32.579Z,24.17
2022-12-08T01:39:59.284Z,24.17
2022-12-08T01:42:26.155Z,24.18
2022-12-08T01:44:59.913Z,24.20
2022-12-08T01:47:33.335Z,24.19
2022-12-08T01:50:01.363Z,24.20
2022-12-08T01:52:40.530Z,24.21
2022-12-08T01:55:15.727Z,24.20
2022-12-08T01:57:50.272Z,24.20
2022-12-08T02:00:20.267Z,24.20
2022-12-08T02:02:55.558Z,24.22
2022-12-08T02:05:26.332Z,24.20
2022-12-08T02:07:54.608Z,24.20
2022-12-08T02:10:23.546Z,24.19
2022-12-08T02:12:53.520Z,24.20
2022-12-08T02:15:26.524Z,24.21
2022-12-08T02:18:02.465Z,24.21
2022-12-08T02:20:29.160Z,24.20
2022-12-08T02:23:18.294Z,24.23
2022-12-08T02:26:22.272Z,24.22
2022-12-08T02:29:40.490Z,24.21
2022-12-08T02:32:12.905Z,24.20
2022-12-08T02:34:49.446Z,24.20
2022-12-08T02:37:23.812Z,24.20
2022-12-08T02:40:19.478Z,24.19
2022-12-08T02:42:56.205Z,24.19
2022-12-08T02:45:31.890Z,24.18
2022-12-08T02:47:59.970Z,24.19
2022-12-08T02:50:28.131Z,24.19
2022-12-08T02:52:55.339Z,24.19
2022-12-08T02:55:37.764Z,24.20
2022-12-08T02:58:22.941Z,24.20
2022-12-08T03:01:17.497Z,24.19
2022-12-08T03:04:27.363Z,24.19
2022-12-08T03:07:07.309Z,24.19
2022-12-08T03:09:39.784Z,24.19
2022-12-08T03:13:05.097Z,24.20
2022-12-08T03:15:32.942Z,24.20
2022-12-08T03:18:00.035Z,24.20
2022-12-08T03:20:30.223Z,24.20
2022-12-08T03:23:00.326Z,24.20
2022-12-08T03:25:31.208Z,24.22
2022-12-08T03:27:59.602Z,24.21
2022-12-08T03:30:31.663Z,24.22
2022-12-08T03:33:09.559Z,24.23
2022-12-08T03:35:39.390Z,24.23
2022-12-08T03:38:12.799Z,24.26
2022-12-08T03:40:40.477Z,24.25
2022-12-08T03:43:07.316Z,24.26
2022-12-08T03:45:34.338Z,24.27
2022-12-08T03:48:01.118Z,24.29
2022-12-08T03:50:28.338Z,24.28
2022-12-08T03:52:55.038Z,24.29
2022-12-08T03:55:21.723Z,24.29
2022-12-08T03:57:48.451Z,24.28
2022-12-08T04:00:16.831Z,24.29
2022-12-08T04:02:43.679Z,24.30
2022-12-08T04:05:10.495Z,24.30
2022-12-08T04:07:37.344Z,24.30
2022-12-08T04:10:05.337Z,24.32
2022-12-08T04:12:32.271Z,24.32
2022-12-08T04:14:59.100Z,24.32
2022-12-08T04:17:26.805Z,24.33
2022-12-08T04:19:53.709Z,24.33
2022-12-08T04:22:20.531Z,24.34
2022-12-08T04:24:48.279Z,24.35
2022-12-08T04:27:14.933Z,24.34
2022-12-08T04:29:41.631Z,24.36
2022-12-08T04:32:08.337Z,24.39
2022-12-08T04:34:35.063Z,24.40
2022-12-08T04:37:01.828Z,24.41
2022-12-08T04:39:28.543Z,24.41
2022-12-08T04:41:55.202Z,24.40
2022-12-08T04:44:21.921Z,24.40
2022-12-08T04:46:48.660Z,24.39
2022-12-08T04:49:15.398Z,24.39
2022-12-08T04:51:42.113Z,24.38
2022-12-08T04:54:08.817Z,24.40
2022-12-08T04:56:35.494Z,24.39
2022-12-08T04:59:02.874Z,24.40
2022-12-08T05:01:29.694Z,24.39
2022-12-08T05:03:56.972Z,24.37
2022-12-08T05:06:23.678Z,24.34
2022-12-08T05:08:50.659Z,24.30
2022-12-08T05:11:17.543Z,24.27
2022-12-08T05:13:44.249Z,24.23
2022-12-08T05:16:13.874Z,24.18
2022-12-08T05:18:41.936Z,24.15
2022-12-08T05:21:09.123Z,24.11
2022-12-08T05:23:36.332Z,24.09
2022-12-08T05:26:03.114Z,24.04
2022-12-08T05:28:41.265Z,23.99
2022-12-08T05:31:08.884Z,23.97
2022-12-08T05:33:35.695Z,23.94
2022-12-08T05:36:02.440Z,23.92
2022-12-08T05:38:29.246Z,23.91
2022-12-08T05:40:56.087Z,23.89
2022-12-08T05:43:22.771Z,23.88
2022-12-08T05:45:49.750Z,23.86
2022-12-08T05:48:16.842Z,23.85
2022-12-08T05:50:47.953Z,23.83
2022-12-08T05:53:15.613Z,23.82
2022-12-08T05:55:42.316Z,23.80
2022-12-08T05:58:12.952Z,23.79
2022-12-08T06:00:40.182Z,23.76
2022-12-08T06:03:07.401Z,23.76
2022-12-08T06:05:35.545Z,23.74
2022-12-08T06:08:02.452Z,23.73
2022-12-08T06:10:29.605Z,23.71
2022-12-08T06:12:56.247Z,23.70
2022-12-08T06:15:22.957Z,23.69
2022-12-08T06:17:49.572Z,23.68
2022-12-08T06:20:16.250Z,23.61
2022-12-08T06:22:42.968Z,23.55
2022-12-08T06:25:10.403Z,23.51
2022-12-08T06:27:37.202Z,23.49
2022-12-08T06:30:05.210Z,23.46
2022-12-08T06:32:32.111Z,23.44
2022-12-08T06:34:58.883Z,23.44
2022-12-08T06:37:25.876Z,23.44
2022-12-08T06:39:52.492Z,23.44
2022-12-08T06:42:19.253Z,23.44
2022-12-08T06:44:46.200Z,23.44
2022-12-08T06:47:12.936Z,23.42
2022-12-08T06:49:39.586Z,23.41
2022-12-08T06:52:06.317Z,23.35
2022-12-08T06:54:32.997Z,23.18
2022-12-08T06:57:00.037Z,22.96
2022-12-08T06:59:26.684Z,22.75
2022-12-08T07:01:53.388Z,22.57
2022-12-08T07:04:20.113Z,22.40
2022-12-08T07:06:46.770Z,22.23
2022-12-08T07:09:13.400Z,22.09
2022-12-08T07:11:40.050Z,21.97
2022-12-08T07:14:07.336Z,21.87
2022-12-08T07:16:34.160Z,21.78
2022-12-08T07:19:01.033Z,21.68
2022-12-08T07:21:27.762Z,21.61
2022-12-08T07:23:57.931Z,21.56
2022-12-08T07:26:25.490Z,21.51
2022-12-08T07:28:52.231Z,21.47
2022-12-08T07:31:25.181Z,21.43
2022-12-08T07:33:52.431Z,21.39
2022-12-08T07:36:19.342Z,21.35
2022-12-08T07:38:46.127Z,21.31
2022-12-08T07:41:17.408Z,21.27
2022-12-08T07:43:45.086Z,21.19
2022-12-08T07:46:13.618Z,21.13
2022-12-08T07:48:40.539Z,21.04
2022-12-08T07:51:07.299Z,20.94
2022-12-08T07:53:34.237Z,20.86
2022-12-08T07:56:01.080Z,20.84
2022-12-08T07:58:27.713Z,20.89
2022-12-08T08:00:54.443Z,20.99
2022-12-08T08:03:21.136Z,21.06
2022-12-08T08:05:47.780Z,21.14
2022-12-08T08:08:14.525Z,21.21
2022-12-08T08:10:41.315Z,21.28
2022-12-08T08:13:08.848Z,21.31
2022-12-08T08:15:35.980Z,21.35
2022-12-08T08:18:02.769Z,21.37
2022-12-08T08:20:29.516Z,21.36
2022-12-08T08:22:56.251Z,21.34
2022-12-08T08:25:22.858Z,21.33
2022-12-08T08:27:49.840Z,21.32
2022-12-08T08:30:20.734Z,21.33
2022-12-08T08:32:48.734Z,21.34
2022-12-08T08:35:15.509Z,21.34
2022-12-08T08:37:47.230Z,21.33
2022-12-08T08:40:15.656Z,21.35
2022-12-08T08:42:42.363Z,21.35
2022-12-08T08:45:09.538Z,21.35
2022-12-08T08:47:36.344Z,21.38
2022-12-08T08:50:04.368Z,21.38
2022-12-08T08:52:31.381Z,21.40
2022-12-08T08:54:58.071Z,21.41
2022-12-08T08:57:26.094Z,21.43
2022-12-08T08:59:54.086Z,21.45
2022-12-08T09:02:21.630Z,21.44
2022-12-08T09:04:48.630Z,21.45
2022-12-08T09:07:15.971Z,21.48
2022-12-08T09:09:42.908Z,21.51
2022-12-08T09:12:10.092Z,21.52
2022-12-08T09:14:36.909Z,21.54
2022-12-08T09:17:03.588Z,21.56
2022-12-08T09:19:30.254Z,21.56
2022-12-08T09:21:56.942Z,21.55
2022-12-08T09:24:23.700Z,21.54
2022-12-08T09:26:50.452Z,21.53
2022-12-08T09:29:17.153Z,21.48
2022-12-08T09:31:44.132Z,21.47
2022-12-08T09:34:12.763Z,21.45
2022-12-08T09:36:40.051Z,21.43
2022-12-08T09:39:07.190Z,21.41
2022-12-08T09:41:41.829Z,21.39
2022-12-08T09:44:22.815Z,21.36
2022-12-08T09:46:52.494Z,21.35
2022-12-08T09:49:23.913Z,21.36
2022-12-08T09:51:50.798Z,21.33
2022-12-08T09:54:31.713Z,21.34
2022-12-08T09:57:01.416Z,21.34
2022-12-08T09:59:31.621Z,21.35
2022-12-08T10:01:59.869Z,21.35
2022-12-08T10:04:30.753Z,21.35
2022-12-08T10:07:05.916Z,21.36
2022-12-08T10:09:38.838Z,21.34
2022-12-08T10:12:22.141Z,21.37
2022-12-08T10:15:00.511Z,21.36
2022-12-08T10:17:35.110Z,21.34
2022-12-08T10:20:17.688Z,21.34
2022-12-08T10:22:48.200Z,21.33
2022-12-08T10:25:33.251Z,21.31
2022-12-08T10:27:59.949Z,21.29
2022-12-08T10:30:26.946Z,21.31
2022-12-08T10:32:54.113Z,21.35
2022-12-08T10:35:23.000Z,21.38
2022-12-08T10:37:57.926Z,21.41
2022-12-08T10:40:28.646Z,21.45
2022-12-08T10:42:59.051Z,21.48
2022-12-08T10:45:30.319Z,21.52
2022-12-08T10:48:03.740Z,21.57
2022-12-08T10:50:41.264Z,21.60
2022-12-08T10:53:07.909Z,21.60
2022-12-08T10:55:46.888Z,21.62
2022-12-08T10:58:34.613Z,21.63
2022-12-08T11:01:17.652Z,21.63
2022-12-08T11:03:53.127Z,21.62
2022-12-08T11:06:28.712Z,21.62
2022-12-08T11:09:01.548Z,21.62
2022-12-08T11:12:06.117Z,21.62
2022-12-08T11:14:55.799Z,21.63
2022-12-08T11:17:22.353Z,21.62
2022-12-08T11:20:24.424Z,21.65
2022-12-08T11:22:53.525Z,21.67
2022-12-08T11:25:27.854Z,21.69
2022-12-08T11:27:59.697Z,21.71
2022-12-08T11:30:34.202Z,21.71
2022-12-08T11:33:22.607Z,21.71
2022-12-08T11:35:57.988Z,21.71
2022-12-08T11:38:26.612Z,21.71
2022-12-08T11:41:03.485Z,21.75
2022-12-08T11:43:36.009Z,21.78
2022-12-08T11:46:11.628Z,21.78
2022-12-08T11:48:45.226Z,21.78
2022-12-08T11:51:39.676Z,21.82
2022-12-08T11:54:13.506Z,21.83
2022-12-08T11:56:47.816Z,21.85
2022-12-08T11:59:25.224Z,21.85
2022-12-08T12:01:52.099Z,21.86
2022-12-08T12:04:27.927Z,21.89
2022-12-08T12:07:09.610Z,21.91
2022-12-08T12:10:07.370Z,21.92
2022-12-08T12:13:16.978Z,21.93
2022-12-08T12:16:05.021Z,21.94
2022-12-08T12:19:00.347Z,21.95
2022-12-08T12:21:39.354Z,21.98
2022-12-08T12:24:10.942Z,21.99
2022-12-08T12:26:49.226Z,22.00
2022-12-08T12:29:21.270Z,22.02
2022-12-08T12:31:52.380Z,22.01
2022-12-08T12:34:48.215Z,22.01
2022-12-08T12:37:18.848Z,22.02
2022-12-08T12:40:11.974Z,22.01
2022-12-08T12:42:45.471Z,22.01
2022-12-08T12:45:15.001Z,22.01
2022-12-08T12:47:57.323Z,22.03
2022-12-08T12:50:33.364Z,22.02
2022-12-08T12:53:25.836Z,22.03
2022-12-08T12:55:57.353Z,22.04
2022-12-08T12:58:30.012Z,22.04
2022-12-08T13:01:11.978Z,22.05
2022-12-08T13:03:42.325Z,22.06
2022-12-08T13:06:14.366Z,22.06
2022-12-08T13:08:51.320Z,22.08
2022-12-08T13:11:18.424Z,22.03
2022-12-08T13:14:03.329Z,22.02
2022-12-08T13:16:39.572Z,22.03
2022-12-08T13:19:16.150Z,22.05
2022-12-08T13:21:42.925Z,22.05
2022-12-08T13:24:25.803Z,22.07
2022-12-08T13:27:04.771Z,22.07
2022-12-08T13:29:33.230Z,22.05
2022-12-08T13:32:03.996Z,22.05
2022-12-08T13:34:53.199Z,22.03
2022-12-08T13:37:31.042Z,22.00
2022-12-08T13:40:10.497Z,22.01
2022-12-08T13:42:40.384Z,22.01
2022-12-08T13:45:39.741Z,22.00
2022-12-08T13:50:32.404Z,22.03
2022-12-08T13:55:16.034Z,22.03
2022-12-08T13:57:28.934Z,22.05
2022-12-08T14:00:01.851Z,22.07
2022-12-08T14:02:35.368Z,22.09
2022-12-08T14:05:18.017Z,22.10
2022-12-08T14:07:48.359Z,22.15
2022-12-08T14:10:27.800Z,22.17
2022-12-08T14:13:01.660Z,22.20
2022-12-08T14:15:32.686Z,22.23
2022-12-08T14:18:04.119Z,22.24
2022-12-08T14:20:46.478Z,22.26
2022-12-08T14:23:20.240Z,22.27
2022-12-08T14:25:48.337Z,22.27
2022-12-08T14:28:15.084Z,22.27
2022-12-08T14:30:41.994Z,22.27
2022-12-08T14:33:14.646Z,22.27
2022-12-08T14:35:41.815Z,22.25
2022-12-08T14:38:19.864Z,22.23
2022-12-08T14:40:49.871Z,22.21
2022-12-08T14:43:26.104Z,22.20
2022-12-08T14:45:58.586Z,22.19
2022-12-08T14:48:31.473Z,22.18
2022-12-08T14:51:21.076Z,22.18
2022-12-08T14:53:58.777Z,22.18
2022-12-08T14:56:29.217Z,22.18
2022-12-08T14:59:10.068Z,22.19
2022-12-08T15:01:37.725Z,22.19
2022-12-08T15:04:12.195Z,22.19
2022-12-08T15:06:52.381Z,22.18
2022-12-08T15:09:43.906Z,22.17
2022-12-08T15:12:13.735Z,22.15
2022-12-08T15:15:14.404Z,22.15
2022-12-08T15:17:45.669Z,22.12
2022-12-08T15:20:40.037Z,22.11
2022-12-08T15:23:18.975Z,22.10
2022-12-08T15:25:46.675Z,22.08
2022-12-08T15:28:17.489Z,22.05
2022-12-08T15:30:44.351Z,22.01
2022-12-08T15:33:11.048Z,22.03
2022-12-08T15:35:40.973Z,22.04
2022-12-08T15:38:18.739Z,22.06
2022-12-08T15:40:45.469Z,22.05
2022-12-08T15:43:12.202Z,22.07
2022-12-08T15:45:43.859Z,22.08
2022-12-08T15:48:23.549Z,22.08
2022-12-08T15:50:50.426Z,22.07
2022-12-08T15:53:17.576Z,22.07
2022-12-08T15:56:10.867Z,22.06
2022-12-08T16:01:20.617Z,22.06
2022-12-08T16:09:26.349Z,22.06
2022-12-08T16:12:10.388Z,22.05
2022-12-08T16:17:25.919Z,22.06
2022-12-08T16:19:52.639Z,22.06
2022-12-08T16:22:54.174Z,22.08
2022-12-08T16:25:19.343Z,22.10
2022-12-08T16:28:01.427Z,22.12
2022-12-08T16:30:30.394Z,22.12
2022-12-08T16:32:58.408Z,22.13
2022-12-08T16:35:26.215Z,22.13
2022-12-08T16:37:53.685Z,22.13
2022-12-08T16:40:20.587Z,22.14
2022-12-08T16:42:47.641Z,22.14
2022-12-08T16:45:23.394Z,22.13
2022-12-08T16:47:58.325Z,22.15
2022-12-08T16:50:28.338Z,22.14
2022-12-08T16:53:06.798Z,22.15
2022-12-08T16:55:35.155Z,22.14
2022-12-08T16:58:02.755Z,22.15
2022-12-08T17:00:32.012Z,22.15
2022-12-08T17:02:58.801Z,22.13
2022-12-08T17:05:26.661Z,22.12
2022-12-08T17:07:54.017Z,22.13
2022-12-08T17:10:24.085Z,22.10
2022-12-08T17:12:51.393Z,22.07
2022-12-08T17:15:20.884Z,22.07
2022-12-08T17:17:47.731Z,22.06
2022-12-08T17:20:17.262Z,22.08
2022-12-08T17:22:44.361Z,22.08
2022-12-08T17:25:13.207Z,22.07
2022-12-08T17:27:40.485Z,22.07
2022-12-08T17:30:10.274Z,22.07
2022-12-08T17:32:37.994Z,22.05
2022-12-08T17:35:05.495Z,22.05
2022-12-08T17:37:32.604Z,22.05
2022-12-08T17:39:59.214Z,22.06
2022-12-08T17:42:26.073Z,22.04
2022-12-08T17:44:53.588Z,22.04
2022-12-08T17:47:20.452Z,22.03
2022-12-08T17:49:47.226Z,22.02
2022-12-08T17:52:14.011Z,22.01
2022-12-08T17:54:40.710Z,21.99
2022-12-08T17:57:07.403Z,21.95
2022-12-08T17:59:34.142Z,21.94
2022-12-08T18:02:01.002Z,21.94
2022-12-08T18:04:28.753Z,21.92
2022-12-08T18:06:55.700Z,21.92
2022-12-08T18:09:22.509Z,21.91
2022-12-08T18:11:49.523Z,21.89
2022-12-08T18:14:16.631Z,21.89
2022-12-08T18:16:45.742Z,21.88
2022-12-08T18:19:14.277Z,21.87
2022-12-08T18:21:42.363Z,21.87
2022-12-08T18:24:15.624Z,21.89
2022-12-08T18:26:42.354Z,21.92
2022-12-08T18:29:09.132Z,21.94
2022-12-08T18:31:35.924Z,21.98
2022-12-08T18:34:02.769Z,21.99
2022-12-08T18:36:30.283Z,22.01
2022-12-08T18:38:57.040Z,22.04
2022-12-08T18:44:04.337Z,-144.89
2022-12-08T18:46:31.132Z,-144.89
2022-12-08T18:48:57.959Z,-144.89
2022-12-08T18:51:24.744Z,-144.89
2022-12-08T18:53:52.535Z,-144.89
2022-12-08T18:56:26.571Z,-144.89
2022-12-08T18:59:02.923Z,-144.89
2022-12-08T19:01:35.028Z,-144.89
2022-12-08T19:04:27.942Z,-144.89
2022-12-08T19:06:52.908Z,-144.89
2022-12-08T19:09:20.456Z,-144.89
2022-12-08T19:11:47.411Z,-144.89
2022-12-08T19:14:14.622Z,-144.89
2022-12-08T19:16:41.364Z,-144.89
2022-12-08T19:19:08.188Z,-144.89
2022-12-08T19:21:35.243Z,-144.89
2022-12-08T19:24:01.960Z,-144.89
2022-12-08T19:26:28.652Z,-144.89
2022-12-08T19:28:55.649Z,-144.89
2022-12-08T19:31:22.481Z,-144.89
2022-12-08T19:33:49.611Z,-144.89
2022-12-08T19:36:19.596Z,-144.89
2022-12-08T19:38:46.945Z,-144.89
2022-12-08T19:41:13.794Z,-144.89
2022-12-08T19:43:40.479Z,-144.89
2022-12-08T19:46:08.679Z,-144.89
2022-12-08T19:48:35.695Z,-144.89
2022-12-08T19:51:02.453Z,-144.89
2022-12-08T19:53:29.101Z,-144.89
2022-12-08T19:55:55.881Z,-144.89
2022-12-08T19:58:22.707Z,-144.89
2022-12-08T20:00:49.461Z,-144.89
2022-12-08T20:03:17.512Z,-144.89
2022-12-08T20:05:45.844Z,-144.89
2022-12-08T20:08:12.956Z,-144.89
2022-12-08T20:10:42.573Z,-144.89
2022-12-08T20:13:10.989Z,-144.89
2022-12-08T20:15:37.701Z,-144.89
2022-12-08T20:18:10.536Z,-144.89
2022-12-08T20:20:37.971Z,-144.89
2022-12-08T20:23:04.801Z,-144.89
2022-12-08T20:25:31.605Z,-144.89
2022-12-08T20:27:58.360Z,-144.89
2022-12-08T20:30:26.644Z,-144.89
2022-12-08T20:32:53.457Z,-144.89
2022-12-08T20:35:20.150Z,-144.89
2022-12-08T20:37:46.925Z,-144.89
2022-12-08T20:40:14.262Z,-144.89
2022-12-08T20:42:41.066Z,-144.89
2022-12-08T20:45:08.640Z,-144.89
2022-12-08T20:47:36.543Z,-144.89
2022-12-08T20:50:06.037Z,-144.89
2022-12-08T20:52:33.184Z,-144.89
2022-12-08T20:55:00.222Z,-144.89
2022-12-08T20:57:27.142Z,-144.89
2022-12-08T20:59:53.941Z,-144.89
2022-12-08T21:02:20.744Z,-144.89
2022-12-08T21:04:47.858Z,-144.89
2022-12-08T21:07:14.962Z,-144.89
2022-12-08T21:09:41.965Z,-144.89
2022-12-08T21:12:09.130Z,-144.89
2022-12-08T21:14:36.056Z,-144.89
2022-12-08T21:17:03.276Z,-144.89
2022-12-08T21:19:30.164Z,-144.89
2022-12-08T21:21:57.052Z,-144.89
2022-12-08T21:24:26.410Z,-144.89
2022-12-08T21:26:55.705Z,-144.89
2022-12-08T21:29:22.553Z,-144.89
2022-12-08T21:31:49.622Z,-144.89
2022-12-08T21:34:16.481Z,-144.89
2022-12-08T21:36:43.361Z,-144.89
2022-12-08T21:39:10.264Z,-144.89
2022-12-08T21:41:37.284Z,-144.89
2022-12-08T21:44:05.379Z,-144.89
2022-12-08T21:46:32.612Z,-144.89
2022-12-08T21:48:59.616Z,-144.89
2022-12-08T21:51:26.527Z,-144.89
2022-12-08T21:53:53.534Z,-144.89
2022-12-08T21:56:20.490Z,-144.89
2022-12-08T21:58:47.348Z,-144.89
2022-12-08T22:01:14.354Z,-144.89
2022-12-08T22:03:41.960Z,-144.89
2022-12-08T22:06:11.516Z,-144.89
2022-12-08T22:08:39.033Z,-144.89
2022-12-08T22:11:06.824Z,-144.89
2022-12-08T22:13:35.427Z,-144.89
2022-12-08T22:16:05.434Z,-144.89
2022-12-08T22:18:33.497Z,-144.89
2022-12-08T22:21:00.597Z,-144.89
2022-12-08T22:23:28.900Z,-144.89
2022-12-08T22:25:59.803Z,-144.89
2022-12-08T22:28:28.124Z,-144.89
2022-12-08T22:30:54.915Z,-144.89
2022-12-08T22:33:21.785Z,-144.89
2022-12-08T22:36:02.219Z,-144.89
2022-12-08T22:38:32.201Z,-144.89
2022-12-08T22:40:58.957Z,-144.89
2022-12-08T22:43:25.959Z,-144.89
2022-12-08T22:45:52.754Z,-144.89
2022-12-08T22:48:19.643Z,-144.89
2022-12-08T22:50:46.387Z,-144.89
2022-12-08T22:53:14.955Z,-144.89
2022-12-08T22:55:45.106Z,-144.89
2022-12-08T22:58:11.996Z,-144.89
2022-12-08T23:00:39.470Z,-144.89
2022-12-08T23:03:06.901Z,-144.89
2022-12-08T23:05:35.186Z,-144.89
2022-12-08T23:08:03.263Z,-144.89
2022-12-08T23:10:31.219Z,-144.89
2022-12-08T23:13:03.529Z,-144.89
2022-12-08T23:15:31.511Z,-144.89
2022-12-08T23:17:58.655Z,-144.89
2022-12-08T23:20:25.797Z,-144.89
2022-12-08T23:22:52.977Z,-144.89
2022-12-08T23:25:19.987Z,-144.89
2022-12-08T23:27:47.118Z,-144.89
2022-12-08T23:30:14.676Z,-144.89
2022-12-08T23:32:41.721Z,-144.89
2022-12-08T23:35:09.055Z,-144.89
2022-12-08T23:37:36.141Z,-144.89
2022-12-08T23:40:04.272Z,-144.89
2022-12-08T23:42:31.475Z,-144.89
2022-12-08T23:44:58.414Z,-144.89
2022-12-08T23:47:25.373Z,-144.89
2022-12-08T23:49:52.155Z,-144.89
2022-12-08T23:52:18.827Z,-144.89
2022-12-08T23:54:45.573Z,-144.89
2022-12-08T23:57:12.379Z,-144.89
2022-12-08T23:59:39.173Z,-144.89
